Time;durP1;ratioP1;P1;durP2;ratioP2;P2;SDS_P1;SDS_P2;PMS_P1;PMS_P2;Temp;Humidity;BMP_temperature;BMP_pressure;BME280_temperature;BME280_humidity;BME280_pressure;Samples;Min_cycle;Max_cycle;Signal;HPM_P1;HPM_P2
2022/07/19 00:00:11;;;;;;;8.70;3.60;;;18.50;91.90;;;;;;5038098;28;20040;-75
2022/07/19 00:02:38;;;;;;;9.38;3.63;;;18.50;92.00;;;;;;5051685;28;20134;-68
2022/07/19 00:05:05;;;;;;;5.10;2.63;;;18.50;92.50;;;;;;5050971;28;20481;-76
2022/07/19 00:07:31;;;;;;;9.35;3.53;;;18.40;92.70;;;;;;5052207;28;20383;-74
2022/07/19 00:09:57;;;;;;;11.30;3.30;;;18.30;93.20;;;;;;5052644;28;20025;-73
2022/07/19 00:12:22;;;;;;;8.20;3.83;;;18.30;94.00;;;;;;5052352;28;20021;-76
2022/07/19 00:14:48;;;;;;;8.23;3.35;;;18.20;93.90;;;;;;5052499;28;20025;-72
2022/07/19 00:17:14;;;;;;;12.02;3.75;;;18.20;93.80;;;;;;5041248;28;20033;-73
2022/07/19 00:19:40;;;;;;;10.30;3.50;;;18.20;93.70;;;;;;5031427;28;20036;-75
2022/07/19 00:22:06;;;;;;;7.68;3.17;;;18.20;94.40;;;;;;5032873;28;20029;-73
2022/07/19 00:24:32;;;;;;;8.23;3.15;;;18.10;95.00;;;;;;5036799;28;20032;-75
2022/07/19 00:26:58;;;;;;;8.40;4.00;;;18.10;95.20;;;;;;5032896;28;20032;-66
2022/07/19 00:29:24;;;;;;;10.23;3.60;;;18.00;95.10;;;;;;5040202;28;20374;-76
2022/07/19 00:31:49;;;;;;;7.93;3.65;;;18.00;95.70;;;;;;5036919;28;20017;-68
2022/07/19 00:34:15;;;;;;;5.70;3.25;;;18.00;96.10;;;;;;5031977;28;20033;-76
2022/07/19 00:36:42;;;;;;;8.32;3.00;;;18.00;96.60;;;;;;5045338;28;20123;-69
2022/07/19 00:39:07;;;;;;;11.57;3.35;;;17.90;96.30;;;;;;5033713;28;20017;-68
2022/07/19 00:41:40;;;;;;;7.53;3.20;;;17.90;97.00;;;;;;5034899;28;20024;-75
2022/07/19 00:44:05;;;;;;;;;;;17.90;97.30;;;;;;5033890;28;20041;-72
2022/07/19 00:46:31;;;;;;;11.10;3.35;;;17.80;97.60;;;;;;5042929;28;19916;-75
2022/07/19 00:48:57;;;;;;;8.93;3.65;;;17.80;97.90;;;;;;5045238;28;20036;-78
2022/07/19 00:51:23;;;;;;;6.38;3.10;;;17.80;96.90;;;;;;5037053;28;20501;-69
2022/07/19 00:53:52;;;;;;;7.47;3.35;;;17.80;97.00;;;;;;5051140;28;20040;-78
2022/07/19 00:56:19;;;;;;;13.77;4.78;;;17.80;97.20;;;;;;5038177;28;20032;-79
2022/07/19 00:58:48;;;;;;;7.88;3.50;;;17.70;98.10;;;;;;5050076;28;20100;-75
2022/07/19 01:01:14;;;;;;;11.85;3.33;;;17.60;98.50;;;;;;5050859;28;20041;-72
2022/07/19 01:03:40;;;;;;;8.00;4.10;;;17.50;98.90;;;;;;5044015;28;20518;-78
2022/07/19 01:06:08;;;;;;;12.00;4.38;;;17.50;98.90;;;;;;5050941;28;20033;-74
2022/07/19 01:08:35;;;;;;;7.05;3.40;;;17.40;99.40;;;;;;5050282;28;20099;-78
2022/07/19 01:11:04;;;;;;;6.60;3.53;;;17.30;99.20;;;;;;5053191;28;20029;-78
2022/07/19 01:13:31;;;;;;;10.15;4.28;;;17.40;99.60;;;;;;5050932;28;20032;-76
2022/07/19 01:15:56;;;;;;;7.45;3.78;;;17.40;99.50;;;;;;5055907;28;20096;-77
2022/07/19 01:18:22;;;;;;;24.55;4.20;;;17.30;99.50;;;;;;5055237;28;20109;-77
2022/07/19 01:20:48;;;;;;;11.13;4.05;;;17.30;99.60;;;;;;5055902;28;20104;-77
2022/07/19 01:23:14;;;;;;;7.35;3.80;;;17.20;99.60;;;;;;5056106;28;20033;-77
2022/07/19 01:25:40;;;;;;;10.52;4.07;;;17.20;99.90;;;;;;5055345;28;20021;-77
2022/07/19 01:28:07;;;;;;;13.27;4.10;;;17.20;99.90;;;;;;5055345;28;20036;-77
2022/07/19 01:30:33;;;;;;;8.50;4.03;;;17.10;99.90;;;;;;5056172;28;20020;-78
2022/07/19 01:32:59;;;;;;;11.32;4.10;;;17.10;99.90;;;;;;5055644;28;20039;-78
2022/07/19 01:35:25;;;;;;;9.07;3.95;;;17.00;99.90;;;;;;5055523;28;20100;-77
2022/07/19 01:37:51;;;;;;;9.25;3.97;;;17.00;99.90;;;;;;5055632;28;20025;-78
2022/07/19 01:40:17;;;;;;;7.30;3.42;;;17.00;99.90;;;;;;5055184;28;20138;-78
2022/07/19 01:42:44;;;;;;;7.15;3.38;;;17.00;99.90;;;;;;5055004;28;20059;-78
2022/07/19 01:45:11;;;;;;;5.50;2.92;;;17.00;99.90;;;;;;5055316;28;20036;-79
2022/07/19 01:47:37;;;;;;;6.28;3.53;;;17.00;99.90;;;;;;5054367;28;20033;-76
2022/07/19 01:50:05;;;;;;;7.20;3.30;;;17.00;99.90;;;;;;5055168;28;20380;-76
2022/07/19 01:52:31;;;;;;;6.00;3.70;;;17.00;99.90;;;;;;5055314;28;20037;-74
2022/07/19 01:54:57;;;;;;;5.47;3.08;;;17.00;99.90;;;;;;5046565;28;20100;-76
2022/07/19 01:57:23;;;;;;;5.53;3.08;;;16.90;99.90;;;;;;5037586;28;20552;-76
2022/07/19 01:59:49;;;;;;;5.72;3.75;;;16.80;99.90;;;;;;5034312;28;20018;-68
2022/07/19 02:02:15;;;;;;;6.93;3.50;;;16.80;99.90;;;;;;5038577;28;20531;-77
2022/07/19 02:04:41;;;;;;;7.90;3.47;;;16.70;99.90;;;;;;5039066;28;20061;-65
2022/07/19 02:07:07;;;;;;;8.27;4.03;;;16.70;99.90;;;;;;5036720;28;20138;-69
2022/07/19 02:09:32;;;;;;;5.30;3.40;;;16.70;99.90;;;;;;5039471;28;20028;-76
2022/07/19 02:11:58;;;;;;;7.68;3.67;;;16.50;99.90;;;;;;5044028;28;20028;-73
2022/07/19 02:14:24;;;;;;;7.25;3.30;;;16.60;99.90;;;;;;5052588;28;20036;-73
2022/07/19 02:16:50;;;;;;;7.18;3.92;;;16.60;99.90;;;;;;5043029;28;20022;-77
2022/07/19 02:19:16;;;;;;;10.05;3.58;;;16.60;99.90;;;;;;5048724;28;20108;-77
2022/07/19 02:21:42;;;;;;;9.35;4.05;;;16.50;99.90;;;;;;5050503;28;20040;-78
2022/07/19 02:24:09;;;;;;;6.75;3.47;;;16.50;99.90;;;;;;5055233;28;20027;-78
2022/07/19 02:26:35;;;;;;;12.55;3.50;;;16.50;99.90;;;;;;5054636;28;20057;-78
2022/07/19 02:29:01;;;;;;;10.48;4.00;;;16.40;99.90;;;;;;5051084;28;20037;-78
2022/07/19 02:31:27;;;;;;;4.90;3.15;;;16.40;99.90;;;;;;5053416;28;20033;-78
2022/07/19 02:33:53;;;;;;;7.28;3.58;;;16.40;99.90;;;;;;5053784;28;20040;-78
2022/07/19 02:36:19;;;;;;;9.00;3.95;;;16.20;99.90;;;;;;5041079;28;20029;-76
2022/07/19 02:38:45;;;;;;;10.75;4.20;;;16.20;99.90;;;;;;5053676;28;20021;-78
2022/07/19 02:41:11;;;;;;;9.25;4.10;;;16.10;99.90;;;;;;5041212;28;20381;-78
2022/07/19 02:43:37;;;;;;;9.82;3.97;;;16.20;99.90;;;;;;5054912;28;20484;-78
2022/07/19 02:46:03;;;;;;;9.02;4.20;;;16.20;99.90;;;;;;5053147;28;20390;-77
2022/07/19 02:48:29;;;;;;;8.80;3.92;;;16.20;99.90;;;;;;5047491;28;20066;-78
2022/07/19 02:50:55;;;;;;;9.48;4.50;;;16.10;99.90;;;;;;5051042;28;20028;-78
2022/07/19 02:53:21;;;;;;;8.65;4.38;;;16.10;99.90;;;;;;5053653;28;20029;-79
2022/07/19 02:55:46;;;;;;;9.10;4.15;;;15.90;99.90;;;;;;5054028;28;20033;-75
2022/07/19 02:58:12;;;;;;;7.43;4.25;;;15.90;99.90;;;;;;5049877;28;20032;-78
2022/07/19 03:00:38;;;;;;;7.28;4.18;;;15.80;99.90;;;;;;5035942;28;20040;-78
2022/07/19 03:05:49;;;;;;;9.57;4.10;;;15.70;99.90;;;;;;5045827;28;20021;-78
2022/07/19 03:08:15;;;;;;;7.90;4.13;;;15.70;99.90;;;;;;5040998;28;20044;-78
2022/07/19 03:10:41;;;;;;;5.78;3.60;;;15.70;99.90;;;;;;5035748;28;20098;-77
2022/07/19 03:13:08;;;;;;;14.20;4.22;;;15.70;99.90;;;;;;5046771;28;20034;-78
2022/07/19 03:15:37;;;;;;;7.03;3.83;;;15.80;99.90;;;;;;5053884;28;20104;-78
2022/07/19 03:18:04;;;;;;;9.55;3.85;;;15.80;99.90;;;;;;5053199;28;20067;-78
2022/07/19 03:20:31;;;;;;;7.15;3.83;;;15.80;99.90;;;;;;5053585;28;20029;-78
2022/07/19 03:22:57;;;;;;;11.48;4.45;;;15.80;99.90;;;;;;5054137;28;20387;-78
2022/07/19 03:25:23;;;;;;;8.55;3.92;;;15.80;99.90;;;;;;5054122;28;20021;-78
2022/07/19 03:27:52;;;;;;;8.95;4.30;;;15.90;99.90;;;;;;5044215;28;20033;-78
2022/07/19 03:30:18;;;;;;;6.82;3.47;;;15.80;99.90;;;;;;5052256;28;20383;-79
2022/07/19 03:32:43;;;;;;;10.70;3.97;;;15.70;99.90;;;;;;5053778;28;20036;-79
2022/07/19 03:35:09;;;;;;;9.43;4.57;;;15.70;99.90;;;;;;5053478;28;20036;-78
2022/07/19 03:37:35;;;;;;;9.75;4.65;;;15.80;99.90;;;;;;5053183;28;20021;-76
2022/07/19 03:40:01;;;;;;;11.15;4.63;;;16.00;99.90;;;;;;5048736;28;20032;-66
2022/07/19 03:42:27;;;;;;;6.75;4.32;;;16.00;99.90;;;;;;5053787;28;20110;-67
2022/07/19 03:44:52;;;;;;;9.52;4.43;;;15.90;99.90;;;;;;5053664;28;20036;-78
2022/07/19 03:47:18;;;;;;;8.05;4.18;;;15.90;99.90;;;;;;5053620;28;20029;-76
2022/07/19 03:49:44;;;;;;;6.78;4.05;;;16.10;99.90;;;;;;5053145;28;20533;-78
2022/07/19 03:52:11;;;;;;;7.03;4.15;;;16.70;99.90;;;;;;5053137;28;20031;-78
2022/07/19 03:54:37;;;;;;;6.45;3.70;;;18.00;99.90;;;;;;5052823;28;20062;-79
2022/07/19 03:57:03;;;;;;;8.98;3.92;;;18.80;96.10;;;;;;5052938;28;20021;-77
2022/07/19 03:59:29;;;;;;;8.77;4.18;;;19.60;93.60;;;;;;5052616;28;20099;-79
2022/07/19 04:01:55;;;;;;;10.85;4.05;;;20.20;89.80;;;;;;5051368;28;20124;-78
2022/07/19 04:04:21;;;;;;;10.45;3.85;;;21.00;85.60;;;;;;5052537;28;20040;-77
2022/07/19 04:06:46;;;;;;;11.48;4.28;;;21.80;81.20;;;;;;5052788;28;20423;-79
2022/07/19 04:09:13;;;;;;;7.88;4.28;;;22.00;77.30;;;;;;5052620;28;20049;-79
2022/07/19 04:11:38;;;;;;;10.60;4.80;;;22.30;76.70;;;;;;5052190;28;20023;-79
2022/07/19 04:14:04;;;;;;;13.25;4.53;;;22.70;75.00;;;;;;5053056;28;20234;-76
2022/07/19 04:16:30;;;;;;;4.57;3.47;;;23.10;73.50;;;;;;5052140;28;20021;-76
2022/07/19 04:18:56;;;;;;;8.77;4.70;;;23.70;71.70;;;;;;5052003;28;20029;-78
2022/07/19 04:21:22;;;;;;;10.50;4.07;;;24.60;70.20;;;;;;5052671;28;20021;-77
2022/07/19 04:23:48;;;;;;;9.82;4.38;;;25.20;67.80;;;;;;5052396;28;20040;-72
2022/07/19 04:26:13;;;;;;;7.07;4.05;;;25.50;66.70;;;;;;5051596;28;20032;-62
2022/07/19 04:28:39;;;;;;;15.32;5.18;;;25.80;66.30;;;;;;5033721;28;20487;-78
2022/07/19 04:31:05;;;;;;;12.00;4.22;;;26.10;65.50;;;;;;5051776;28;20032;-78
2022/07/19 04:33:31;;;;;;;7.22;4.80;;;26.50;64.60;;;;;;5050738;28;20086;-80
2022/07/19 04:35:57;;;;;;;8.75;4.85;;;26.70;64.00;;;;;;5050961;28;20469;-77
2022/07/19 04:38:23;;;;;;;12.48;5.45;;;27.20;63.40;;;;;;5051836;28;20029;-78
2022/07/19 04:40:49;;;;;;;16.35;6.65;;;27.50;63.00;;;;;;5051412;28;20035;-75
2022/07/19 04:43:17;;;;;;;15.63;7.07;;;28.00;61.80;;;;;;5051448;28;20379;-78
2022/07/19 04:45:44;;;;;;;14.95;7.43;;;27.80;61.40;;;;;;5054924;28;20163;-78
2022/07/19 04:48:10;;;;;;;15.15;6.90;;;27.50;61.00;;;;;;5055511;28;20048;-78
2022/07/19 04:50:37;;;;;;;13.40;7.75;;;27.30;61.60;;;;;;5055665;28;20023;-71
2022/07/19 04:53:03;;;;;;;13.73;7.32;;;26.70;62.00;;;;;;5055423;28;20029;-78
2022/07/19 04:55:28;;;;;;;13.70;6.82;;;26.60;62.50;;;;;;5055721;28;20447;-78
2022/07/19 04:57:54;;;;;;;14.30;6.93;;;26.60;62.50;;;;;;5055583;28;20025;-76
2022/07/19 05:00:20;;;;;;;16.25;6.05;;;27.00;63.00;;;;;;5055828;28;20372;-77
2022/07/19 05:02:46;;;;;;;12.45;6.03;;;27.10;62.00;;;;;;5055064;28;20124;-77
2022/07/19 05:05:12;;;;;;;11.65;5.18;;;27.00;61.30;;;;;;5055720;28;20025;-75
2022/07/19 05:07:38;;;;;;;24.77;6.95;;;25.90;62.10;;;;;;5055427;28;20476;-76
2022/07/19 05:10:04;;;;;;;12.45;5.25;;;25.30;63.20;;;;;;5054738;28;20112;-76
2022/07/19 05:12:30;;;;;;;12.25;5.45;;;25.00;63.60;;;;;;5055153;28;20060;-77
2022/07/19 05:14:58;;;;;;;10.27;5.47;;;24.50;65.00;;;;;;5055304;28;20107;-77
2022/07/19 05:17:24;;;;;;;10.77;5.38;;;23.80;66.80;;;;;;5055314;28;20025;-76
2022/07/19 05:19:50;;;;;;;18.88;4.82;;;23.30;68.30;;;;;;5055269;28;20025;-76
2022/07/19 05:22:16;;;;;;;13.98;6.15;;;22.80;68.70;;;;;;5055212;28;20087;-76
2022/07/19 05:24:42;;;;;;;18.52;6.15;;;22.90;69.10;;;;;;5055027;28;20029;-77
2022/07/19 05:27:08;;;;;;;10.80;5.00;;;22.60;69.80;;;;;;5054813;28;20120;-76
2022/07/19 05:29:34;;;;;;;11.75;5.32;;;22.50;70.30;;;;;;5037562;28;20032;-76
2022/07/19 05:32:00;;;;;;;13.45;5.78;;;22.50;71.10;;;;;;5054954;28;20029;-76
2022/07/19 05:34:26;;;;;;;12.23;5.47;;;22.70;71.60;;;;;;5055315;28;20031;-77
2022/07/19 05:36:51;;;;;;;14.88;6.03;;;22.50;72.00;;;;;;5055083;28;20029;-77
2022/07/19 05:39:17;;;;;;;10.20;5.03;;;22.40;73.10;;;;;;5055083;28;20028;-76
2022/07/19 05:41:44;;;;;;;17.73;6.15;;;22.70;71.90;;;;;;5054677;28;20188;-77
2022/07/19 05:44:10;;;;;;;13.20;4.93;;;22.70;72.80;;;;;;5054768;28;20013;-76
2022/07/19 05:46:40;;;;;;;20.35;6.13;;;22.80;72.40;;;;;;5054393;28;20040;-76
2022/07/19 05:49:10;;;;;;;14.13;6.47;;;22.80;72.20;;;;;;5054984;28;20029;-76
2022/07/19 05:51:36;;;;;;;12.98;5.72;;;23.20;72.00;;;;;;5054936;28;20035;-76
2022/07/19 05:54:03;;;;;;;13.48;5.32;;;23.40;71.80;;;;;;5055047;28;20082;-76
2022/07/19 05:56:29;;;;;;;18.67;7.30;;;23.40;70.50;;;;;;5053827;28;20498;-76
2022/07/19 05:58:55;;;;;;;14.52;5.57;;;23.40;71.10;;;;;;5054651;28;20025;-77
2022/07/19 06:01:23;;;;;;;11.20;5.28;;;23.40;72.00;;;;;;5054276;28;20107;-76
2022/07/19 06:03:51;;;;;;;12.40;5.78;;;23.60;70.80;;;;;;5054298;28;20066;-77
2022/07/19 06:06:17;;;;;;;14.75;4.68;;;23.50;70.10;;;;;;5054627;28;20021;-76
2022/07/19 06:08:44;;;;;;;9.35;4.20;;;23.40;69.50;;;;;;5054374;28;20490;-77
2022/07/19 06:11:10;;;;;;;12.55;4.97;;;23.40;70.50;;;;;;5054582;28;20032;-76
2022/07/19 06:13:36;;;;;;;9.93;4.47;;;23.80;70.00;;;;;;5054374;28;20029;-72
2022/07/19 06:16:03;;;;;;;11.90;4.63;;;23.90;68.60;;;;;;5053826;28;20021;-75
2022/07/19 06:18:34;;;;;;;10.07;4.60;;;23.90;69.80;;;;;;5054049;28;20544;-75
2022/07/19 06:21:06;;;;;;;13.30;4.10;;;24.00;69.20;;;;;;5053646;28;20028;-77
2022/07/19 06:23:32;;;;;;;8.43;3.63;;;24.20;67.10;;;;;;5053803;28;20025;-76
2022/07/19 06:25:58;;;;;;;5.35;3.30;;;24.30;67.00;;;;;;5053814;28;20017;-76
2022/07/19 06:28:25;;;;;;;10.43;3.47;;;24.60;66.60;;;;;;5053185;28;20044;-75
2022/07/19 06:30:51;;;;;;;9.75;3.28;;;24.70;66.60;;;;;;5052965;28;20029;-75
2022/07/19 06:33:17;;;;;;;9.88;3.25;;;24.70;66.20;;;;;;5053966;28;20112;-76
2022/07/19 06:35:42;;;;;;;6.05;3.13;;;24.80;67.00;;;;;;5053789;28;20096;-76
2022/07/19 06:38:08;;;;;;;21.08;3.33;;;24.80;65.90;;;;;;5036031;28;20033;-77
2022/07/19 06:40:34;;;;;;;8.95;3.55;;;24.80;65.10;;;;;;5052862;28;20029;-67
2022/07/19 06:43:00;;;;;;;10.88;3.92;;;24.90;65.60;;;;;;5053741;28;20032;-77
2022/07/19 06:45:26;;;;;;;10.65;3.53;;;25.20;64.80;;;;;;5053668;28;20540;-73
2022/07/19 06:47:52;;;;;;;12.63;3.70;;;25.40;64.60;;;;;;5053808;28;20139;-77
2022/07/19 06:50:18;;;;;;;10.10;3.65;;;25.60;65.60;;;;;;5052948;28;20079;-76
2022/07/19 06:52:44;;;;;;;9.82;3.90;;;25.80;64.10;;;;;;5051947;28;20033;-75
2022/07/19 06:55:10;;;;;;;6.88;3.95;;;25.80;65.10;;;;;;5053200;28;20021;-76
2022/07/19 06:57:36;;;;;;;17.67;3.42;;;26.00;63.20;;;;;;5053224;28;20111;-69
2022/07/19 07:00:06;;;;;;;8.15;3.25;;;26.10;63.60;;;;;;5053386;28;20017;-77
2022/07/19 07:02:32;;;;;;;16.85;3.83;;;26.10;62.20;;;;;;5052809;28;20398;-77
2022/07/19 07:04:57;;;;;;;9.27;3.55;;;26.20;62.60;;;;;;5053034;28;20021;-76
2022/07/19 07:07:23;;;;;;;9.23;3.60;;;26.30;63.20;;;;;;5051550;28;20036;-76
2022/07/19 07:09:49;;;;;;;9.93;3.35;;;26.40;63.30;;;;;;5051500;28;20141;-76
2022/07/19 07:12:15;;;;;;;7.50;3.65;;;26.50;64.00;;;;;;5052655;28;20094;-77
2022/07/19 07:14:41;;;;;;;7.38;3.08;;;26.70;62.10;;;;;;5051453;28;20025;-77
2022/07/19 07:17:07;;;;;;;16.85;3.65;;;27.00;61.50;;;;;;5050786;28;20024;-78
2022/07/19 07:19:32;;;;;;;8.48;3.60;;;27.10;61.30;;;;;;5051490;28;20075;-77
2022/07/19 07:22:00;;;;;;;6.43;2.75;;;27.40;60.50;;;;;;5050681;28;20029;-77
2022/07/19 07:24:26;;;;;;;8.35;3.47;;;27.30;59.20;;;;;;5050435;28;20115;-77
2022/07/19 07:26:52;;;;;;;5.93;2.83;;;27.60;60.80;;;;;;5050460;28;20437;-78
2022/07/19 07:29:18;;;;;;;11.00;3.38;;;27.70;60.30;;;;;;5051997;28;20074;-78
2022/07/19 07:31:44;;;;;;;5.72;2.80;;;27.50;59.50;;;;;;5052105;28;20044;-73
2022/07/19 07:34:10;;;;;;;7.30;2.45;;;27.80;59.30;;;;;;5052256;28;20060;-78
2022/07/19 07:36:36;;;;;;;6.07;2.70;;;28.10;59.00;;;;;;5052817;28;20037;-77
2022/07/19 07:39:02;;;;;;;5.68;2.30;;;28.40;58.00;;;;;;5051366;28;20025;-77
2022/07/19 07:41:28;;;;;;;8.15;2.58;;;28.30;58.70;;;;;;5050749;28;20051;-77
2022/07/19 07:43:54;;;;;;;7.57;2.83;;;28.50;57.10;;;;;;5052095;28;20480;-77
2022/07/19 07:46:20;;;;;;;5.95;2.83;;;28.80;78.60;;;;;;5051381;28;20036;-77
2022/07/19 07:48:46;;;;;;;4.35;2.58;;;28.70;56.80;;;;;;5047092;28;20068;-71
2022/07/19 07:51:14;;;;;;;6.57;2.85;;;28.80;68.20;;;;;;5045672;28;20017;-75
2022/07/19 07:53:39;;;;;;;9.27;2.75;;;28.70;78.60;;;;;;5044683;28;20025;-78
2022/07/19 07:56:05;;;;;;;7.53;3.00;;;29.00;56.90;;;;;;5050793;28;20033;-77
2022/07/19 07:58:31;;;;;;;9.77;2.63;;;28.70;56.60;;;;;;5051509;28;20425;-78
2022/07/19 08:00:57;;;;;;;5.40;2.58;;;28.90;57.30;;;;;;5051368;28;20028;-78
2022/07/19 08:03:23;;;;;;;7.00;3.05;;;29.10;56.50;;;;;;5051001;28;20373;-77
2022/07/19 08:05:49;;;;;;;6.18;3.20;;;29.00;55.40;;;;;;5050443;28;20032;-64
2022/07/19 08:08:15;;;;;;;8.43;2.83;;;29.30;55.20;;;;;;5050633;28;20037;-74
2022/07/19 08:10:41;;;;;;;10.20;3.45;;;29.00;56.90;;;;;;5051369;28;20029;-72
2022/07/19 08:13:07;;;;;;;4.70;2.33;;;29.00;55.50;;;;;;5051949;28;20111;-72
2022/07/19 08:15:35;;;;;;;7.68;2.75;;;29.00;56.70;;;;;;5050754;28;20114;-70
2022/07/19 08:18:00;;;;;;;7.70;3.13;;;29.90;57.30;;;;;;5050801;28;20082;-67
2022/07/19 08:20:27;;;;;;;9.98;2.85;;;;;;;;;;5050174;28;20045;-77
2022/07/19 08:22:52;;;;;;;8.75;3.10;;;30.30;77.80;;;;;;5033549;28;20442;-77
2022/07/19 08:25:18;;;;;;;7.72;2.80;;;30.30;77.70;;;;;;5050967;28;20025;-74
2022/07/19 08:27:45;;;;;;;7.05;3.13;;;30.20;76.50;;;;;;5050993;28;20124;-78
2022/07/19 08:30:12;;;;;;;9.98;3.13;;;29.70;78.90;;;;;;5051190;28;20387;-76
2022/07/19 08:32:38;;;;;;;7.07;2.90;;;29.70;78.80;;;;;;5050691;28;20024;-78
2022/07/19 08:35:05;;;;;;;10.77;3.63;;;30.00;78.20;;;;;;5050766;28;20029;-78
2022/07/19 08:37:31;;;;;;;14.52;3.08;;;30.00;78.50;;;;;;5050702;28;20479;-77
2022/07/19 08:39:57;;;;;;;6.72;3.05;;;30.40;54.40;;;;;;5050227;28;20047;-78
2022/07/19 08:42:24;;;;;;;6.25;2.28;;;30.40;62.30;;;;;;5050853;28;20030;-76
2022/07/19 08:44:52;;;;;;;8.60;2.15;;;31.60;70.00;;;;;;5048227;28;20064;-77
2022/07/19 08:47:21;;;;;;;5.60;2.15;;;29.70;51.30;;;;;;5048102;28;20068;-76
2022/07/19 08:49:48;;;;;;;3.90;1.90;;;29.80;49.80;;;;;;5048393;28;20130;-75
2022/07/19 08:52:16;;;;;;;3.78;1.70;;;29.70;78.50;;;;;;5048555;28;20108;-77
2022/07/19 08:54:42;;;;;;;5.57;2.33;;;29.50;78.10;;;;;;5044600;28;20018;-78
2022/07/19 08:59:52;;;;;;;3.33;2.25;;;30.00;76.60;;;;;;5050677;28;20499;-79
2022/07/19 09:02:18;;;;;;;5.30;2.13;;;29.60;77.80;;;;;;5050453;28;20079;-78
2022/07/19 09:05:05;;;;;;;8.10;2.47;;;29.90;78.40;;;;;;5051365;28;20064;-79
2022/07/19 09:07:31;;;;;;;10.15;1.90;;;30.50;66.70;;;;;;5050513;28;20033;-79
2022/07/19 09:10:16;;;;;;;5.25;2.13;;;;;;;;;;5050424;28;20429;-78
2022/07/19 09:13:01;;;;;;;4.85;2.05;;;;;;;;;;5049866;28;20120;-79
2022/07/19 09:15:45;;;;;;;3.72;1.83;;;31.30;48.20;;;;;;5040170;28;20130;-76
2022/07/19 09:18:15;;;;;;;4.63;2.13;;;31.30;48.80;;;;;;5031054;28;20026;-79
2022/07/19 09:20:42;;;;;;;4.05;2.35;;;31.10;49.50;;;;;;5034689;28;20032;-77
2022/07/19 09:23:08;;;;;;;3.88;1.77;;;31.00;50.00;;;;;;5036315;28;20078;-77
2022/07/19 09:25:38;;;;;;;6.68;2.20;;;30.50;49.40;;;;;;5050461;28;20037;-79
2022/07/19 09:28:05;;;;;;;14.57;2.70;;;30.70;50.80;;;;;;5050891;28;20095;-78
2022/07/19 09:30:44;;;;;;;5.18;2.22;;;30.90;51.30;;;;;;5050108;28;20021;-77
2022/07/19 09:33:15;;;;;;;5.13;2.05;;;31.20;51.20;;;;;;5049957;28;20475;-79
2022/07/19 09:35:46;;;;;;;2.60;1.70;;;31.30;50.40;;;;;;5054586;28;20021;-77
2022/07/19 09:38:21;;;;;;;3.25;1.85;;;31.00;50.30;;;;;;5053811;28;20047;-80
2022/07/19 09:40:48;;;;;;;4.15;1.90;;;31.20;51.70;;;;;;5042430;28;20021;-78
2022/07/19 09:43:14;;;;;;;4.85;1.85;;;30.80;48.30;;;;;;5049596;28;20111;-78
2022/07/19 09:45:40;;;;;;;3.70;1.95;;;31.10;49.70;;;;;;5052997;28;20052;-79
2022/07/19 09:48:06;;;;;;;4.57;1.65;;;30.50;48.70;;;;;;5054004;28;20443;-77
2022/07/19 09:50:32;;;;;;;3.22;1.80;;;30.30;48.10;;;;;;5052705;28;20036;-77
2022/07/19 09:53:00;;;;;;;2.92;1.98;;;30.80;49.10;;;;;;5054603;28;20029;-78
2022/07/19 09:55:27;;;;;;;2.83;1.60;;;31.00;50.70;;;;;;5054530;28;20036;-78
2022/07/19 09:57:56;;;;;;;5.18;1.80;;;30.90;49.50;;;;;;5054470;28;20037;-72
2022/07/19 10:00:24;;;;;;;4.18;1.70;;;31.00;48.00;;;;;;5054030;28;20029;-73
2022/07/19 10:02:56;;;;;;;3.03;1.80;;;31.20;48.50;;;;;;5039219;28;20503;-71
2022/07/19 10:05:22;;;;;;;;;;;31.40;51.70;;;;;;5053303;28;20025;-77
2022/07/19 10:07:48;;;;;;;3.30;1.55;;;31.30;46.40;;;;;;5052952;28;20374;-72
2022/07/19 10:10:16;;;;;;;3.42;1.75;;;31.10;48.10;;;;;;5054124;28;20057;-77
2022/07/19 10:12:44;;;;;;;3.03;1.70;;;31.40;50.00;;;;;;5054462;28;20468;-80
2022/07/19 10:15:18;;;;;;;3.88;1.73;;;30.70;47.80;;;;;;5054160;28;20029;-78
2022/07/19 10:18:14;;;;;;;3.75;1.73;;;30.50;47.10;;;;;;5054060;28;20483;-78
2022/07/19 10:20:43;;;;;;;3.65;1.85;;;30.90;47.90;;;;;;5053933;28;20021;-78
2022/07/19 10:23:09;;;;;;;4.15;1.55;;;31.00;47.70;;;;;;5046952;28;20029;-78
2022/07/19 10:25:47;;;;;;;5.57;1.83;;;31.10;48.00;;;;;;5053686;28;20540;-77
2022/07/19 10:28:33;;;;;;;5.57;2.03;;;31.30;51.80;;;;;;5053258;28;20383;-80
2022/07/19 10:30:59;;;;;;;3.53;1.88;;;31.50;49.20;;;;;;5040764;28;20039;-76
2022/07/19 10:33:30;;;;;;;4.32;1.55;;;;;;;;;;5053848;28;20036;-77
2022/07/19 10:35:56;;;;;;;16.13;1.85;;;31.90;47.10;;;;;;5053531;28;20028;-78
2022/07/19 10:38:22;;;;;;;2.22;1.58;;;31.60;45.90;;;;;;5053738;28;20036;-79
2022/07/19 10:40:56;;;;;;;9.65;1.67;;;31.40;49.50;;;;;;5052918;28;20024;-78
2022/07/19 10:43:23;;;;;;;4.15;1.42;;;;;;;;;;5053272;28;20060;-77
2022/07/19 10:46:07;;;;;;;6.90;1.83;;;31.10;45.50;;;;;;5053371;28;20013;-78
2022/07/19 10:48:47;;;;;;;2.95;1.20;;;30.90;45.30;;;;;;5053317;28;20083;-78
2022/07/19 10:51:27;;;;;;;5.95;1.70;;;;;;;;;;5053160;28;20024;-77
2022/07/19 10:53:55;;;;;;;4.07;1.23;;;30.70;45.90;;;;;;5053515;28;20418;-78
2022/07/19 10:56:24;;;;;;;2.20;1.48;;;30.80;46.00;;;;;;5052831;28;20013;-78
2022/07/19 10:58:57;;;;;;;3.67;1.80;;;31.00;46.30;;;;;;5052189;28;20443;-76
2022/07/19 11:01:24;;;;;;;4.03;1.60;;;31.40;47.30;;;;;;5051666;28;20037;-76
2022/07/19 11:03:51;;;;;;;2.38;1.52;;;31.70;47.10;;;;;;5052107;28;20032;-76
2022/07/19 11:06:25;;;;;;;3.70;1.63;;;;;;;;;;5052126;28;20056;-77
2022/07/19 11:08:56;;;;;;;2.60;1.67;;;32.10;50.00;;;;;;5051213;28;20387;-78
2022/07/19 11:11:25;;;;;;;4.28;1.40;;;32.00;50.60;;;;;;5051796;28;20379;-78
2022/07/19 11:13:52;;;;;;;6.57;1.88;;;;;;;;;;5051988;28;20460;-75
2022/07/19 11:16:19;;;;;;;3.53;1.73;;;32.20;46.00;;;;;;5051984;28;20033;-75
2022/07/19 11:18:45;;;;;;;3.03;1.73;;;32.50;64.40;;;;;;5051871;28;20070;-76
2022/07/19 11:21:12;;;;;;;4.90;1.83;;;32.40;46.90;;;;;;5051906;28;20037;-77
2022/07/19 11:23:40;;;;;;;2.08;1.35;;;32.00;44.40;;;;;;5052184;28;20009;-76
2022/07/19 11:26:14;;;;;;;1.98;1.23;;;31.90;44.80;;;;;;5051961;28;20033;-79
2022/07/19 11:28:41;;;;;;;4.35;1.40;;;31.90;45.00;;;;;;5052149;28;20040;-79
2022/07/19 11:31:12;;;;;;;1.83;1.50;;;31.80;45.30;;;;;;5051942;28;20025;-77
2022/07/19 11:33:38;;;;;;;6.30;1.33;;;31.50;44.60;;;;;;5052128;28;20025;-77
2022/07/19 11:36:04;;;;;;;3.42;1.75;;;31.60;46.80;;;;;;5052631;28;20070;-68
2022/07/19 11:38:47;;;;;;;4.30;1.48;;;31.70;46.00;;;;;;5051891;28;20044;-76
2022/07/19 11:41:25;;;;;;;5.00;1.88;;;31.80;46.40;;;;;;5046066;28;20073;-67
2022/07/19 11:43:58;;;;;;;6.05;1.98;;;32.00;45.90;;;;;;5033950;28;20425;-76
2022/07/19 11:46:34;;;;;;;1.92;1.20;;;32.10;46.70;;;;;;5052326;28;20033;-64
2022/07/19 11:49:03;;;;;;;3.88;2.20;;;32.10;45.70;;;;;;5052050;28;20041;-66
2022/07/19 11:51:30;;;;;;;4.78;1.63;;;32.10;46.80;;;;;;5050498;28;20028;-78
2022/07/19 11:53:57;;;;;;;5.47;1.85;;;32.10;46.70;;;;;;5051088;28;20032;-63
2022/07/19 11:56:26;;;;;;;10.30;2.28;;;32.10;44.20;;;;;;5051119;28;20017;-68
2022/07/19 11:58:54;;;;;;;5.15;2.03;;;32.20;45.50;;;;;;5046973;28;20029;-78
2022/07/19 12:01:26;;;;;;;3.45;1.83;;;31.90;44.20;;;;;;5050320;28;20039;-76
2022/07/19 12:04:00;;;;;;;5.05;1.83;;;31.60;44.40;;;;;;5050010;28;20029;-77
2022/07/19 12:06:42;;;;;;;3.15;1.77;;;31.20;44.80;;;;;;5051617;28;20037;-76
2022/07/19 12:09:19;;;;;;;3.03;2.03;;;;;;;;;;5050061;28;20041;-78
2022/07/19 12:11:53;;;;;;;2.83;1.98;;;31.20;45.00;;;;;;5051414;28;20044;-77
2022/07/19 12:14:23;;;;;;;2.88;2.08;;;31.40;46.10;;;;;;5049312;28;20032;-78
2022/07/19 12:16:50;;;;;;;25.02;2.78;;;31.20;45.00;;;;;;5050140;28;20021;-80
2022/07/19 12:19:20;;;;;;;6.60;2.50;;;31.50;45.80;;;;;;5051177;28;20083;-75
2022/07/19 12:21:46;;;;;;;7.35;2.00;;;31.60;46.20;;;;;;5050636;28;20032;-75
2022/07/19 12:24:22;;;;;;;4.38;2.55;;;31.60;46.30;;;;;;5051523;28;20087;-78
2022/07/19 12:26:57;;;;;;;3.95;2.40;;;31.70;46.10;;;;;;5051805;28;20427;-77
2022/07/19 12:29:42;;;;;;;6.53;2.40;;;31.40;45.40;;;;;;5051605;28;20482;-78
2022/07/19 12:32:10;;;;;;;5.15;2.22;;;31.50;45.40;;;;;;5051573;28;20025;-76
2022/07/19 12:34:47;;;;;;;3.47;1.98;;;31.40;45.30;;;;;;5049744;28;20033;-79
2022/07/19 12:37:23;;;;;;;6.05;2.25;;;31.40;45.40;;;;;;5051301;28;20470;-78
2022/07/19 12:40:01;;;;;;;6.15;2.25;;;31.50;45.20;;;;;;5050872;28;20033;-78
2022/07/19 12:43:02;;;;;;;6.22;3.00;;;31.50;45.30;;;;;;5050302;28;20028;-74
2022/07/19 12:45:39;;;;;;;5.35;2.72;;;31.40;44.80;;;;;;4989342;28;20045;-75
2022/07/19 12:48:06;;;;;;;5.55;2.53;;;31.60;46.80;;;;;;4990109;28;20501;-78
2022/07/19 12:50:42;;;;;;;4.68;2.20;;;31.60;45.30;;;;;;4990204;28;20049;-78
2022/07/19 12:53:10;;;;;;;3.60;2.45;;;31.60;45.10;;;;;;4989752;28;20482;-78
2022/07/19 12:55:38;;;;;;;5.00;2.30;;;31.70;47.80;;;;;;4989916;28;20044;-77